sensor_id;sensor_type;location;lat;lon;timestamp;P1;durP1;ratioP1;P2;durP2;ratioP2
47713;SDS011;33475;46.614;13.888;2023-12-28T00:01:22;11.95;;;5.32;;
47713;SDS011;33475;46.614;13.888;2023-12-28T00:03:48;8.25;;;5.20;;
47713;SDS011;33475;46.614;13.888;2023-12-28T00:06:15;11.52;;;6.60;;
47713;SDS011;33475;46.614;13.888;2023-12-28T00:08:42;9.13;;;6.40;;
47713;SDS011;33475;46.614;13.888;2023-12-28T00:11:08;14.55;;;6.70;;
47713;SDS011;33475;46.614;13.888;2023-12-28T00:13:34;11.30;;;6.88;;
47713;SDS011;33475;46.614;13.888;2023-12-28T00:16:01;7.63;;;5.90;;
47713;SDS011;33475;46.614;13.888;2023-12-28T00:18:27;6.50;;;5.65;;
47713;SDS011;33475;46.614;13.888;2023-12-28T00:20:53;7.43;;;6.38;;
47713;SDS011;33475;46.614;13.888;2023-12-28T00:23:19;7.22;;;5.80;;
47713;SDS011;33475;46.614;13.888;2023-12-28T00:25:46;6.60;;;5.38;;
47713;SDS011;33475;46.614;13.888;2023-12-28T00:28:12;8.60;;;6.68;;
47713;SDS011;33475;46.614;13.888;2023-12-28T00:30:38;6.50;;;5.35;;
47713;SDS011;33475;46.614;13.888;2023-12-28T00:33:04;9.82;;;5.78;;
47713;SDS011;33475;46.614;13.888;2023-12-28T00:35:31;8.15;;;6.60;;
47713;SDS011;33475;46.614;13.888;2023-12-28T00:37:57;6.53;;;5.57;;
47713;SDS011;33475;46.614;13.888;2023-12-28T00:40:23;9.75;;;5.65;;
47713;SDS011;33475;46.614;13.888;2023-12-28T00:42:49;7.43;;;5.68;;
47713;SDS011;33475;46.614;13.888;2023-12-28T00:45:15;7.97;;;5.80;;
47713;SDS011;33475;46.614;13.888;2023-12-28T00:47:41;9.40;;;5.50;;
47713;SDS011;33475;46.614;13.888;2023-12-28T00:50:08;7.47;;;5.00;;
47713;SDS011;33475;46.614;13.888;2023-12-28T00:52:37;6.45;;;5.25;;
47713;SDS011;33475;46.614;13.888;2023-12-28T00:55:04;7.47;;;5.20;;
47713;SDS011;33475;46.614;13.888;2023-12-28T00:57:30;6.75;;;6.05;;
47713;SDS011;33475;46.614;13.888;2023-12-28T00:59:56;6.70;;;5.40;;
47713;SDS011;33475;46.614;13.888;2023-12-28T01:02:22;7.45;;;5.50;;
47713;SDS011;33475;46.614;13.888;2023-12-28T01:04:48;8.32;;;5.28;;
47713;SDS011;33475;46.614;13.888;2023-12-28T01:07:14;10.02;;;5.93;;
47713;SDS011;33475;46.614;13.888;2023-12-28T01:09:41;7.60;;;5.93;;
47713;SDS011;33475;46.614;13.888;2023-12-28T01:12:07;6.57;;;5.57;;
47713;SDS011;33475;46.614;13.888;2023-12-28T01:14:33;7.72;;;5.65;;
47713;SDS011;33475;46.614;13.888;2023-12-28T01:16:59;6.60;;;5.22;;
47713;SDS011;33475;46.614;13.888;2023-12-28T01:19:25;7.72;;;6.15;;
47713;SDS011;33475;46.614;13.888;2023-12-28T01:21:52;7.95;;;5.45;;
47713;SDS011;33475;46.614;13.888;2023-12-28T01:24:18;6.90;;;5.15;;
47713;SDS011;33475;46.614;13.888;2023-12-28T01:26:44;8.18;;;5.47;;
47713;SDS011;33475;46.614;13.888;2023-12-28T01:29:10;7.18;;;5.38;;
47713;SDS011;33475;46.614;13.888;2023-12-28T01:31:36;10.15;;;6.25;;
47713;SDS011;33475;46.614;13.888;2023-12-28T01:34:04;7.70;;;6.07;;
47713;SDS011;33475;46.614;13.888;2023-12-28T01:36:30;7.50;;;5.38;;
47713;SDS011;33475;46.614;13.888;2023-12-28T01:38:56;6.57;;;5.50;;
47713;SDS011;33475;46.614;13.888;2023-12-28T01:41:22;10.65;;;5.70;;
47713;SDS011;33475;46.614;13.888;2023-12-28T01:43:48;7.38;;;6.32;;
47713;SDS011;33475;46.614;13.888;2023-12-28T01:46:15;8.90;;;6.53;;
47713;SDS011;33475;46.614;13.888;2023-12-28T01:48:42;9.18;;;5.72;;
47713;SDS011;33475;46.614;13.888;2023-12-28T01:51:10;6.95;;;5.97;;
47713;SDS011;33475;46.614;13.888;2023-12-28T01:53:37;9.10;;;5.57;;
47713;SDS011;33475;46.614;13.888;2023-12-28T01:56:03;8.35;;;6.32;;
47713;SDS011;33475;46.614;13.888;2023-12-28T01:58:31;6.63;;;5.50;;
47713;SDS011;33475;46.614;13.888;2023-12-28T02:00:58;7.22;;;5.28;;
47713;SDS011;33475;46.614;13.888;2023-12-28T02:03:25;9.07;;;5.85;;
47713;SDS011;33475;46.614;13.888;2023-12-28T02:05:51;11.85;;;5.97;;
47713;SDS011;33475;46.614;13.888;2023-12-28T02:08:17;7.03;;;5.80;;
47713;SDS011;33475;46.614;13.888;2023-12-28T02:10:43;7.88;;;5.43;;
47713;SDS011;33475;46.614;13.888;2023-12-28T02:13:10;6.80;;;6.13;;
47713;SDS011;33475;46.614;13.888;2023-12-28T02:15:36;7.05;;;6.07;;
47713;SDS011;33475;46.614;13.888;2023-12-28T02:18:06;40.53;;;7.30;;
47713;SDS011;33475;46.614;13.888;2023-12-28T02:20:36;83.35;;;9.25;;
47713;SDS011;33475;46.614;13.888;2023-12-28T02:23:03;56.20;;;9.20;;
47713;SDS011;33475;46.614;13.888;2023-12-28T02:25:31;13.55;;;7.10;;
47713;SDS011;33475;46.614;13.888;2023-12-28T02:27:57;27.88;;;8.68;;
47713;SDS011;33475;46.614;13.888;2023-12-28T02:30:24;29.13;;;7.82;;
47713;SDS011;33475;46.614;13.888;2023-12-28T02:35:29;59.30;;;8.80;;
47713;SDS011;33475;46.614;13.888;2023-12-28T02:37:56;79.00;;;11.05;;
47713;SDS011;33475;46.614;13.888;2023-12-28T02:40:23;38.50;;;7.93;;
47713;SDS011;33475;46.614;13.888;2023-12-28T02:42:50;32.95;;;6.93;;
47713;SDS011;33475;46.614;13.888;2023-12-28T02:45:17;48.92;;;7.00;;
47713;SDS011;33475;46.614;13.888;2023-12-28T02:47:44;47.38;;;8.15;;
47713;SDS011;33475;46.614;13.888;2023-12-28T02:50:10;14.30;;;5.95;;
47713;SDS011;33475;46.614;13.888;2023-12-28T02:52:36;20.73;;;6.85;;
47713;SDS011;33475;46.614;13.888;2023-12-28T02:55:03;35.72;;;7.25;;
47713;SDS011;33475;46.614;13.888;2023-12-28T02:57:29;29.65;;;7.25;;
47713;SDS011;33475;46.614;13.888;2023-12-28T02:59:55;30.60;;;7.05;;
47713;SDS011;33475;46.614;13.888;2023-12-28T03:02:22;6.43;;;5.72;;
47713;SDS011;33475;46.614;13.888;2023-12-28T03:04:49;37.13;;;7.38;;
47713;SDS011;33475;46.614;13.888;2023-12-28T03:07:15;19.80;;;5.95;;
47713;SDS011;33475;46.614;13.888;2023-12-28T03:09:41;26.27;;;7.05;;
47713;SDS011;33475;46.614;13.888;2023-12-28T03:12:07;32.83;;;6.57;;
47713;SDS011;33475;46.614;13.888;2023-12-28T03:14:33;153.65;;;11.52;;
47713;SDS011;33475;46.614;13.888;2023-12-28T03:17:00;26.88;;;7.10;;
47713;SDS011;33475;46.614;13.888;2023-12-28T03:19:26;96.30;;;10.07;;
47713;SDS011;33475;46.614;13.888;2023-12-28T03:21:52;128.50;;;9.38;;
47713;SDS011;33475;46.614;13.888;2023-12-28T03:24:18;235.38;;;14.73;;
47713;SDS011;33475;46.614;13.888;2023-12-28T03:26:44;94.40;;;12.07;;
47713;SDS011;33475;46.614;13.888;2023-12-28T03:29:10;23.20;;;6.40;;
47713;SDS011;33475;46.614;13.888;2023-12-28T03:31:40;192.85;;;14.20;;
47713;SDS011;33475;46.614;13.888;2023-12-28T03:34:06;9.70;;;5.75;;
47713;SDS011;33475;46.614;13.888;2023-12-28T03:36:33;186.30;;;11.35;;
47713;SDS011;33475;46.614;13.888;2023-12-28T03:38:59;109.57;;;9.60;;
47713;SDS011;33475;46.614;13.888;2023-12-28T03:41:25;21.92;;;6.10;;
47713;SDS011;33475;46.614;13.888;2023-12-28T03:43:51;29.73;;;6.53;;
47713;SDS011;33475;46.614;13.888;2023-12-28T03:46:17;70.90;;;8.55;;
47713;SDS011;33475;46.614;13.888;2023-12-28T03:48:43;30.30;;;7.43;;
47713;SDS011;33475;46.614;13.888;2023-12-28T03:51:13;10.85;;;5.47;;
47713;SDS011;33475;46.614;13.888;2023-12-28T03:53:40;28.58;;;6.68;;
47713;SDS011;33475;46.614;13.888;2023-12-28T03:56:06;14.10;;;6.05;;
47713;SDS011;33475;46.614;13.888;2023-12-28T03:58:32;11.65;;;5.68;;
47713;SDS011;33475;46.614;13.888;2023-12-28T04:00:59;9.05;;;6.15;;
47713;SDS011;33475;46.614;13.888;2023-12-28T04:03:25;49.33;;;6.80;;
47713;SDS011;33475;46.614;13.888;2023-12-28T04:05:51;64.60;;;7.63;;
47713;SDS011;33475;46.614;13.888;2023-12-28T04:08:18;26.45;;;6.20;;
47713;SDS011;33475;46.614;13.888;2023-12-28T04:10:44;182.35;;;12.10;;
47713;SDS011;33475;46.614;13.888;2023-12-28T04:13:10;68.80;;;8.48;;
47713;SDS011;33475;46.614;13.888;2023-12-28T04:15:36;68.80;;;7.63;;
47713;SDS011;33475;46.614;13.888;2023-12-28T04:18:04;15.00;;;6.25;;
47713;SDS011;33475;46.614;13.888;2023-12-28T04:20:30;14.85;;;6.03;;
47713;SDS011;33475;46.614;13.888;2023-12-28T04:22:56;30.60;;;6.93;;
47713;SDS011;33475;46.614;13.888;2023-12-28T04:25:22;6.38;;;5.45;;
47713;SDS011;33475;46.614;13.888;2023-12-28T04:27:48;8.02;;;6.28;;
47713;SDS011;33475;46.614;13.888;2023-12-28T04:30:15;8.15;;;5.93;;
47713;SDS011;33475;46.614;13.888;2023-12-28T04:32:41;7.47;;;6.55;;
47713;SDS011;33475;46.614;13.888;2023-12-28T04:35:07;7.55;;;6.60;;
47713;SDS011;33475;46.614;13.888;2023-12-28T04:37:33;12.65;;;7.15;;
47713;SDS011;33475;46.614;13.888;2023-12-28T04:40:00;27.10;;;11.82;;
47713;SDS011;33475;46.614;13.888;2023-12-28T04:42:28;29.67;;;15.00;;
47713;SDS011;33475;46.614;13.888;2023-12-28T04:44:54;30.35;;;14.25;;
47713;SDS011;33475;46.614;13.888;2023-12-28T04:47:20;25.23;;;8.07;;
47713;SDS011;33475;46.614;13.888;2023-12-28T04:49:46;71.50;;;9.50;;
47713;SDS011;33475;46.614;13.888;2023-12-28T04:52:13;76.30;;;11.98;;
47713;SDS011;33475;46.614;13.888;2023-12-28T04:54:42;36.13;;;11.48;;
47713;SDS011;33475;46.614;13.888;2023-12-28T04:57:08;72.50;;;8.65;;
47713;SDS011;33475;46.614;13.888;2023-12-28T04:59:37;63.92;;;11.20;;
47713;SDS011;33475;46.614;13.888;2023-12-28T05:02:04;31.70;;;7.70;;
47713;SDS011;33475;46.614;13.888;2023-12-28T05:04:30;96.93;;;7.97;;
47713;SDS011;33475;46.614;13.888;2023-12-28T05:06:56;53.08;;;5.75;;
47713;SDS011;33475;46.614;13.888;2023-12-28T05:09:23;4.95;;;4.45;;
47713;SDS011;33475;46.614;13.888;2023-12-28T05:11:49;52.35;;;7.60;;
47713;SDS011;33475;46.614;13.888;2023-12-28T05:14:15;10.30;;;5.18;;
47713;SDS011;33475;46.614;13.888;2023-12-28T05:16:41;32.95;;;5.80;;
47713;SDS011;33475;46.614;13.888;2023-12-28T05:19:08;17.88;;;5.63;;
47713;SDS011;33475;46.614;13.888;2023-12-28T05:21:34;26.92;;;7.65;;
47713;SDS011;33475;46.614;13.888;2023-12-28T05:24:00;7.78;;;6.15;;
47713;SDS011;33475;46.614;13.888;2023-12-28T05:26:26;39.70;;;8.10;;
47713;SDS011;33475;46.614;13.888;2023-12-28T05:28:52;13.88;;;6.03;;
47713;SDS011;33475;46.614;13.888;2023-12-28T05:31:18;8.75;;;5.95;;
47713;SDS011;33475;46.614;13.888;2023-12-28T05:33:45;21.65;;;6.85;;
47713;SDS011;33475;46.614;13.888;2023-12-28T05:36:11;7.05;;;6.35;;
47713;SDS011;33475;46.614;13.888;2023-12-28T05:38:37;5.05;;;4.57;;
47713;SDS011;33475;46.614;13.888;2023-12-28T05:41:03;5.25;;;4.63;;
47713;SDS011;33475;46.614;13.888;2023-12-28T05:43:29;6.03;;;5.25;;
47713;SDS011;33475;46.614;13.888;2023-12-28T05:45:55;24.92;;;6.07;;
47713;SDS011;33475;46.614;13.888;2023-12-28T05:48:22;10.95;;;5.30;;
47713;SDS011;33475;46.614;13.888;2023-12-28T05:50:48;18.20;;;6.13;;
47713;SDS011;33475;46.614;13.888;2023-12-28T05:53:14;25.73;;;5.47;;
47713;SDS011;33475;46.614;13.888;2023-12-28T05:55:41;6.15;;;5.15;;
47713;SDS011;33475;46.614;13.888;2023-12-28T05:58:08;12.55;;;4.20;;
47713;SDS011;33475;46.614;13.888;2023-12-28T06:00:34;17.00;;;4.95;;
47713;SDS011;33475;46.614;13.888;2023-12-28T06:03:04;53.10;;;6.25;;
47713;SDS011;33475;46.614;13.888;2023-12-28T06:05:31;17.00;;;5.82;;
47713;SDS011;33475;46.614;13.888;2023-12-28T06:07:57;5.90;;;5.30;;
47713;SDS011;33475;46.614;13.888;2023-12-28T06:10:23;7.57;;;5.63;;
47713;SDS011;33475;46.614;13.888;2023-12-28T06:12:49;12.77;;;7.22;;
47713;SDS011;33475;46.614;13.888;2023-12-28T06:15:16;8.65;;;7.75;;
47713;SDS011;33475;46.614;13.888;2023-12-28T06:17:42;8.65;;;5.65;;
47713;SDS011;33475;46.614;13.888;2023-12-28T06:20:09;28.45;;;7.22;;
47713;SDS011;33475;46.614;13.888;2023-12-28T06:22:38;12.68;;;5.10;;
47713;SDS011;33475;46.614;13.888;2023-12-28T06:25:04;4.90;;;4.40;;
47713;SDS011;33475;46.614;13.888;2023-12-28T06:27:31;5.80;;;4.47;;
47713;SDS011;33475;46.614;13.888;2023-12-28T06:29:58;7.55;;;4.75;;
47713;SDS011;33475;46.614;13.888;2023-12-28T06:32:24;4.93;;;4.40;;
47713;SDS011;33475;46.614;13.888;2023-12-28T06:34:50;7.10;;;5.15;;
47713;SDS011;33475;46.614;13.888;2023-12-28T06:37:17;5.88;;;4.38;;
47713;SDS011;33475;46.614;13.888;2023-12-28T06:39:43;6.07;;;5.40;;
47713;SDS011;33475;46.614;13.888;2023-12-28T06:42:09;7.18;;;4.80;;
47713;SDS011;33475;46.614;13.888;2023-12-28T06:44:35;9.70;;;5.40;;
47713;SDS011;33475;46.614;13.888;2023-12-28T06:47:01;7.43;;;4.88;;
47713;SDS011;33475;46.614;13.888;2023-12-28T06:49:27;7.13;;;5.20;;
47713;SDS011;33475;46.614;13.888;2023-12-28T06:51:53;79.53;;;6.53;;
47713;SDS011;33475;46.614;13.888;2023-12-28T06:54:20;110.65;;;6.70;;
47713;SDS011;33475;46.614;13.888;2023-12-28T06:56:46;143.93;;;10.63;;
47713;SDS011;33475;46.614;13.888;2023-12-28T06:59:12;104.05;;;9.35;;
47713;SDS011;33475;46.614;13.888;2023-12-28T07:01:40;152.10;;;7.38;;
47713;SDS011;33475;46.614;13.888;2023-12-28T07:04:07;72.00;;;6.50;;
47713;SDS011;33475;46.614;13.888;2023-12-28T07:06:33;86.13;;;6.10;;
47713;SDS011;33475;46.614;13.888;2023-12-28T07:08:59;70.57;;;7.85;;
47713;SDS011;33475;46.614;13.888;2023-12-28T07:11:25;33.88;;;8.05;;
47713;SDS011;33475;46.614;13.888;2023-12-28T07:13:52;6.32;;;5.28;;
47713;SDS011;33475;46.614;13.888;2023-12-28T07:16:18;18.05;;;6.28;;
47713;SDS011;33475;46.614;13.888;2023-12-28T07:18:44;47.72;;;8.13;;
47713;SDS011;33475;46.614;13.888;2023-12-28T07:21:10;56.20;;;12.00;;
47713;SDS011;33475;46.614;13.888;2023-12-28T07:23:37;24.92;;;11.15;;
47713;SDS011;33475;46.614;13.888;2023-12-28T07:26:03;28.67;;;9.63;;
47713;SDS011;33475;46.614;13.888;2023-12-28T07:28:30;16.00;;;7.90;;
47713;SDS011;33475;46.614;13.888;2023-12-28T07:30:56;8.00;;;7.15;;
47713;SDS011;33475;46.614;13.888;2023-12-28T07:33:23;9.60;;;7.80;;
47713;SDS011;33475;46.614;13.888;2023-12-28T07:35:49;8.18;;;6.53;;
47713;SDS011;33475;46.614;13.888;2023-12-28T07:38:15;10.52;;;6.75;;
47713;SDS011;33475;46.614;13.888;2023-12-28T07:40:41;6.35;;;5.40;;
47713;SDS011;33475;46.614;13.888;2023-12-28T07:43:07;8.15;;;5.93;;
47713;SDS011;33475;46.614;13.888;2023-12-28T07:45:34;6.20;;;4.70;;
47713;SDS011;33475;46.614;13.888;2023-12-28T07:48:03;9.10;;;5.38;;
47713;SDS011;33475;46.614;13.888;2023-12-28T07:50:30;9.73;;;5.78;;
47713;SDS011;33475;46.614;13.888;2023-12-28T07:52:56;7.00;;;5.10;;
47713;SDS011;33475;46.614;13.888;2023-12-28T07:55:22;6.10;;;5.22;;
47713;SDS011;33475;46.614;13.888;2023-12-28T07:57:49;7.85;;;5.15;;
47713;SDS011;33475;46.614;13.888;2023-12-28T08:00:15;14.95;;;7.32;;
47713;SDS011;33475;46.614;13.888;2023-12-28T08:02:41;10.50;;;6.95;;
47713;SDS011;33475;46.614;13.888;2023-12-28T08:05:08;13.00;;;9.13;;
47713;SDS011;33475;46.614;13.888;2023-12-28T08:07:34;14.55;;;8.98;;
47713;SDS011;33475;46.614;13.888;2023-12-28T08:10:00;11.18;;;6.45;;
47713;SDS011;33475;46.614;13.888;2023-12-28T08:12:27;8.20;;;6.07;;
47713;SDS011;33475;46.614;13.888;2023-12-28T08:14:54;8.38;;;6.38;;
47713;SDS011;33475;46.614;13.888;2023-12-28T08:17:20;7.45;;;5.88;;
47713;SDS011;33475;46.614;13.888;2023-12-28T08:19:46;8.65;;;6.78;;
47713;SDS011;33475;46.614;13.888;2023-12-28T08:22:12;27.25;;;16.10;;
47713;SDS011;33475;46.614;13.888;2023-12-28T08:24:39;17.55;;;11.10;;
47713;SDS011;33475;46.614;13.888;2023-12-28T08:27:05;21.48;;;9.20;;
47713;SDS011;33475;46.614;13.888;2023-12-28T08:29:31;12.73;;;9.05;;
47713;SDS011;33475;46.614;13.888;2023-12-28T08:31:58;54.63;;;10.45;;
47713;SDS011;33475;46.614;13.888;2023-12-28T08:34:25;9.07;;;6.53;;
47713;SDS011;33475;46.614;13.888;2023-12-28T08:36:53;12.00;;;6.35;;
47713;SDS011;33475;46.614;13.888;2023-12-28T08:39:19;8.02;;;5.03;;
47713;SDS011;33475;46.614;13.888;2023-12-28T08:41:45;6.05;;;4.18;;
47713;SDS011;33475;46.614;13.888;2023-12-28T08:44:11;89.72;;;9.35;;
47713;SDS011;33475;46.614;13.888;2023-12-28T08:46:37;7.57;;;5.47;;
47713;SDS011;33475;46.614;13.888;2023-12-28T08:49:03;6.85;;;4.78;;
47713;SDS011;33475;46.614;13.888;2023-12-28T08:51:30;6.07;;;5.22;;
47713;SDS011;33475;46.614;13.888;2023-12-28T08:53:56;5.18;;;4.15;;
47713;SDS011;33475;46.614;13.888;2023-12-28T08:56:22;5.82;;;3.90;;
47713;SDS011;33475;46.614;13.888;2023-12-28T08:58:49;5.30;;;3.83;;
47713;SDS011;33475;46.614;13.888;2023-12-28T09:01:21;7.88;;;4.65;;
47713;SDS011;33475;46.614;13.888;2023-12-28T09:03:48;43.75;;;6.07;;
47713;SDS011;33475;46.614;13.888;2023-12-28T09:06:15;6.50;;;3.92;;
47713;SDS011;33475;46.614;13.888;2023-12-28T09:08:45;27.65;;;5.65;;
47713;SDS011;33475;46.614;13.888;2023-12-28T09:11:12;4.60;;;3.25;;
47713;SDS011;33475;46.614;13.888;2023-12-28T09:13:39;6.75;;;3.67;;
47713;SDS011;33475;46.614;13.888;2023-12-28T09:16:10;113.60;;;9.52;;
47713;SDS011;33475;46.614;13.888;2023-12-28T09:18:38;14.02;;;4.45;;
47713;SDS011;33475;46.614;13.888;2023-12-28T09:21:05;3.78;;;3.47;;
47713;SDS011;33475;46.614;13.888;2023-12-28T09:23:32;5.20;;;4.70;;
47713;SDS011;33475;46.614;13.888;2023-12-28T09:26:02;5.68;;;5.00;;
47713;SDS011;33475;46.614;13.888;2023-12-28T09:28:29;10.70;;;8.98;;
47713;SDS011;33475;46.614;13.888;2023-12-28T09:30:55;5.57;;;4.57;;
47713;SDS011;33475;46.614;13.888;2023-12-28T09:33:21;5.60;;;5.10;;
47713;SDS011;33475;46.614;13.888;2023-12-28T09:35:48;5.57;;;5.07;;
47713;SDS011;33475;46.614;13.888;2023-12-28T09:38:14;4.13;;;3.70;;
47713;SDS011;33475;46.614;13.888;2023-12-28T09:40:43;6.03;;;5.38;;
47713;SDS011;33475;46.614;13.888;2023-12-28T09:45:39;4.38;;;3.97;;
47713;SDS011;33475;46.614;13.888;2023-12-28T09:48:06;3.60;;;3.33;;
47713;SDS011;33475;46.614;13.888;2023-12-28T09:50:32;2.55;;;2.22;;
47713;SDS011;33475;46.614;13.888;2023-12-28T09:52:58;3.00;;;2.70;;
47713;SDS011;33475;46.614;13.888;2023-12-28T09:55:25;5.28;;;4.80;;
47713;SDS011;33475;46.614;13.888;2023-12-28T09:57:51;3.70;;;3.40;;
47713;SDS011;33475;46.614;13.888;2023-12-28T10:00:17;6.03;;;5.53;;
47713;SDS011;33475;46.614;13.888;2023-12-28T10:02:44;6.00;;;5.43;;
47713;SDS011;33475;46.614;13.888;2023-12-28T10:05:14;5.47;;;4.97;;
47713;SDS011;33475;46.614;13.888;2023-12-28T10:07:41;8.10;;;7.40;;
47713;SDS011;33475;46.614;13.888;2023-12-28T10:10:08;5.15;;;2.60;;
47713;SDS011;33475;46.614;13.888;2023-12-28T10:12:35;3.67;;;3.42;;
47713;SDS011;33475;46.614;13.888;2023-12-28T10:15:01;5.22;;;4.78;;
47713;SDS011;33475;46.614;13.888;2023-12-28T10:17:28;4.15;;;3.75;;
47713;SDS011;33475;46.614;13.888;2023-12-28T10:19:54;5.55;;;5.05;;
47713;SDS011;33475;46.614;13.888;2023-12-28T10:22:27;17.63;;;15.82;;
47713;SDS011;33475;46.614;13.888;2023-12-28T10:24:53;2.75;;;2.38;;
47713;SDS011;33475;46.614;13.888;2023-12-28T10:27:19;3.65;;;3.35;;
47713;SDS011;33475;46.614;13.888;2023-12-28T10:29:46;6.85;;;6.25;;
47713;SDS011;33475;46.614;13.888;2023-12-28T10:32:12;3.90;;;3.08;;
47713;SDS011;33475;46.614;13.888;2023-12-28T10:34:40;5.30;;;4.85;;
47713;SDS011;33475;46.614;13.888;2023-12-28T10:37:07;2.95;;;2.58;;
47713;SDS011;33475;46.614;13.888;2023-12-28T10:39:33;2.55;;;2.35;;
47713;SDS011;33475;46.614;13.888;2023-12-28T10:42:01;4.97;;;3.80;;
47713;SDS011;33475;46.614;13.888;2023-12-28T10:44:31;4.72;;;4.25;;
47713;SDS011;33475;46.614;13.888;2023-12-28T10:46:58;3.75;;;3.45;;
47713;SDS011;33475;46.614;13.888;2023-12-28T10:49:27;3.85;;;3.55;;
47713;SDS011;33475;46.614;13.888;2023-12-28T10:51:56;2.95;;;2.45;;
47713;SDS011;33475;46.614;13.888;2023-12-28T10:57:01;2.60;;;2.08;;
47713;SDS011;33475;46.614;13.888;2023-12-28T11:01:59;4.07;;;3.03;;
47713;SDS011;33475;46.614;13.888;2023-12-28T11:04:47;5.43;;;3.08;;
47713;SDS011;33475;46.614;13.888;2023-12-28T11:07:15;2.63;;;2.40;;
47713;SDS011;33475;46.614;13.888;2023-12-28T11:09:42;2.53;;;2.33;;
47713;SDS011;33475;46.614;13.888;2023-12-28T11:12:08;3.85;;;2.97;;
47713;SDS011;33475;46.614;13.888;2023-12-28T11:14:40;3.17;;;2.85;;
47713;SDS011;33475;46.614;13.888;2023-12-28T11:17:07;2.67;;;1.83;;
47713;SDS011;33475;46.614;13.888;2023-12-28T11:19:36;2.65;;;2.40;;
47713;SDS011;33475;46.614;13.888;2023-12-28T11:22:03;2.60;;;1.80;;
47713;SDS011;33475;46.614;13.888;2023-12-28T11:24:29;4.10;;;2.30;;
47713;SDS011;33475;46.614;13.888;2023-12-28T11:26:56;4.53;;;2.58;;
47713;SDS011;33475;46.614;13.888;2023-12-28T11:29:23;2.78;;;2.47;;
47713;SDS011;33475;46.614;13.888;2023-12-28T11:31:56;1.98;;;1.75;;
47713;SDS011;33475;46.614;13.888;2023-12-28T11:34:27;2.72;;;2.53;;
47713;SDS011;33475;46.614;13.888;2023-12-28T11:36:57;1.83;;;1.45;;
47713;SDS011;33475;46.614;13.888;2023-12-28T11:39:31;1.65;;;1.52;;
47713;SDS011;33475;46.614;13.888;2023-12-28T11:44:40;6.32;;;2.38;;
47713;SDS011;33475;46.614;13.888;2023-12-28T11:47:13;2.60;;;1.65;;
47713;SDS011;33475;46.614;13.888;2023-12-28T11:49:39;6.80;;;2.20;;
47713;SDS011;33475;46.614;13.888;2023-12-28T11:52:06;2.85;;;2.03;;
47713;SDS011;33475;46.614;13.888;2023-12-28T11:54:32;3.47;;;1.80;;
47713;SDS011;33475;46.614;13.888;2023-12-28T11:56:59;2.10;;;1.50;;
47713;SDS011;33475;46.614;13.888;2023-12-28T11:59:25;2.00;;;1.77;;
47713;SDS011;33475;46.614;13.888;2023-12-28T12:01:54;2.38;;;2.17;;
47713;SDS011;33475;46.614;13.888;2023-12-28T12:04:20;1.30;;;1.20;;
47713;SDS011;33475;46.614;13.888;2023-12-28T12:06:47;1.85;;;1.33;;
47713;SDS011;33475;46.614;13.888;2023-12-28T12:09:15;1.70;;;1.45;;
47713;SDS011;33475;46.614;13.888;2023-12-28T12:11:43;2.13;;;1.60;;
47713;SDS011;33475;46.614;13.888;2023-12-28T12:14:09;1.83;;;1.30;;
47713;SDS011;33475;46.614;13.888;2023-12-28T12:16:36;1.70;;;1.60;;
47713;SDS011;33475;46.614;13.888;2023-12-28T12:19:06;3.28;;;1.60;;
47713;SDS011;33475;46.614;13.888;2023-12-28T12:21:33;2.00;;;1.80;;
47713;SDS011;33475;46.614;13.888;2023-12-28T12:23:59;2.50;;;2.30;;
47713;SDS011;33475;46.614;13.888;2023-12-28T12:26:29;1.92;;;1.80;;
47713;SDS011;33475;46.614;13.888;2023-12-28T12:28:56;1.63;;;1.52;;
47713;SDS011;33475;46.614;13.888;2023-12-28T12:31:22;2.42;;;2.22;;
47713;SDS011;33475;46.614;13.888;2023-12-28T12:33:49;7.70;;;2.33;;
47713;SDS011;33475;46.614;13.888;2023-12-28T12:36:16;2.13;;;1.67;;
47713;SDS011;33475;46.614;13.888;2023-12-28T12:38:43;2.42;;;2.10;;
47713;SDS011;33475;46.614;13.888;2023-12-28T12:41:12;2.20;;;1.90;;
47713;SDS011;33475;46.614;13.888;2023-12-28T12:43:39;3.15;;;2.85;;
47713;SDS011;33475;46.614;13.888;2023-12-28T12:46:06;3.55;;;2.28;;
47713;SDS011;33475;46.614;13.888;2023-12-28T12:48:32;2.72;;;2.35;;
47713;SDS011;33475;46.614;13.888;2023-12-28T12:51:01;4.38;;;2.80;;
47713;SDS011;33475;46.614;13.888;2023-12-28T12:53:35;5.32;;;3.00;;
47713;SDS011;33475;46.614;13.888;2023-12-28T12:56:04;2.67;;;2.05;;
47713;SDS011;33475;46.614;13.888;2023-12-28T12:58:31;3.15;;;2.40;;
47713;SDS011;33475;46.614;13.888;2023-12-28T13:00:57;2.53;;;2.25;;
47713;SDS011;33475;46.614;13.888;2023-12-28T13:03:27;5.22;;;1.65;;
47713;SDS011;33475;46.614;13.888;2023-12-28T13:05:55;2.22;;;2.03;;
47713;SDS011;33475;46.614;13.888;2023-12-28T13:08:22;2.08;;;1.90;;
47713;SDS011;33475;46.614;13.888;2023-12-28T13:10:48;2.88;;;2.00;;
47713;SDS011;33475;46.614;13.888;2023-12-28T13:13:17;6.68;;;2.00;;
47713;SDS011;33475;46.614;13.888;2023-12-28T13:15:43;4.18;;;2.17;;
47713;SDS011;33475;46.614;13.888;2023-12-28T13:18:09;5.38;;;1.80;;
47713;SDS011;33475;46.614;13.888;2023-12-28T13:20:35;2.58;;;2.15;;
47713;SDS011;33475;46.614;13.888;2023-12-28T13:23:02;3.58;;;3.00;;
47713;SDS011;33475;46.614;13.888;2023-12-28T13:25:28;2.90;;;1.85;;
47713;SDS011;33475;46.614;13.888;2023-12-28T13:27:54;2.97;;;1.77;;
47713;SDS011;33475;46.614;13.888;2023-12-28T13:30:20;2.70;;;2.42;;
47713;SDS011;33475;46.614;13.888;2023-12-28T13:32:47;2.35;;;2.15;;
47713;SDS011;33475;46.614;13.888;2023-12-28T13:35:13;2.47;;;1.63;;
47713;SDS011;33475;46.614;13.888;2023-12-28T13:37:40;2.92;;;2.00;;
47713;SDS011;33475;46.614;13.888;2023-12-28T13:40:06;3.63;;;3.03;;
47713;SDS011;33475;46.614;13.888;2023-12-28T13:42:33;2.58;;;2.13;;
47713;SDS011;33475;46.614;13.888;2023-12-28T13:44:59;4.88;;;2.17;;
47713;SDS011;33475;46.614;13.888;2023-12-28T13:47:26;2.47;;;2.15;;
47713;SDS011;33475;46.614;13.888;2023-12-28T13:49:52;3.75;;;3.20;;
47713;SDS011;33475;46.614;13.888;2023-12-28T13:52:18;3.15;;;2.85;;
47713;SDS011;33475;46.614;13.888;2023-12-28T13:54:44;2.40;;;2.15;;
47713;SDS011;33475;46.614;13.888;2023-12-28T13:57:10;4.97;;;1.75;;
47713;SDS011;33475;46.614;13.888;2023-12-28T13:59:37;3.08;;;1.90;;
47713;SDS011;33475;46.614;13.888;2023-12-28T14:02:03;2.55;;;2.15;;
47713;SDS011;33475;46.614;13.888;2023-12-28T14:04:29;7.05;;;1.75;;
47713;SDS011;33475;46.614;13.888;2023-12-28T14:06:55;2.40;;;1.65;;
47713;SDS011;33475;46.614;13.888;2023-12-28T14:09:21;2.95;;;2.17;;
47713;SDS011;33475;46.614;13.888;2023-12-28T14:11:47;2.05;;;1.75;;
47713;SDS011;33475;46.614;13.888;2023-12-28T14:14:14;4.07;;;2.13;;
47713;SDS011;33475;46.614;13.888;2023-12-28T14:16:40;3.13;;;2.53;;
47713;SDS011;33475;46.614;13.888;2023-12-28T14:19:07;3.88;;;2.10;;
47713;SDS011;33475;46.614;13.888;2023-12-28T14:21:37;3.05;;;2.15;;
47713;SDS011;33475;46.614;13.888;2023-12-28T14:24:04;2.35;;;2.00;;
47713;SDS011;33475;46.614;13.888;2023-12-28T14:26:33;2.38;;;1.70;;
47713;SDS011;33475;46.614;13.888;2023-12-28T14:29:00;2.55;;;2.03;;
47713;SDS011;33475;46.614;13.888;2023-12-28T14:31:30;3.55;;;1.77;;
47713;SDS011;33475;46.614;13.888;2023-12-28T14:33:57;3.85;;;2.20;;
47713;SDS011;33475;46.614;13.888;2023-12-28T14:36:30;3.20;;;2.20;;
47713;SDS011;33475;46.614;13.888;2023-12-28T14:38:58;2.55;;;2.17;;